Athens, WV

3:30 AM EST on November 28, 2014 (GMT -0500)
Oxley Hollow Road | Change Station
CLOSE
Current Station
Personal Weather Station
Location: Princeton, WV
Elevation: 2411 ft
Nearby Weather Stations
Active Advisory: Special Statement

Elev 2411 ft 37.44 °N, 81.03 °W | Updated 1 minute ago

Overcast
Overcast
24.9 °F
Feels Like 25 °F
N
1.0
Wind Variable Wind from WSW
Gusts 3.0 mph

Today
High -- | Low -- °F
--% Chance of Precip.
Yesterday
High -- | Low -- °F
Precip. -- in
7:16 AM 5:06 PM
Waxing Crescent, 38% visible
Pressure 30.30 in
Visibility 10.0 miles
Clouds Overcast 3400 ft
Windchill 25 °F
Dew Point 20 °F
Humidity 80%
Rainfall -999.00 in
Snow Depth Not available.
UV 0 out of 12
Pollen .10 out of 12
Air Quality Not available.
Flu Activity Not available.
METAR KBLF 280752Z AUTO 29008KT 10SM OVC034 M04/M09 A3022 RMK AO2 SNE16 SLP259 P0000 T10441089 $

More Conditions Fewer Conditions

Pressure 30.30 in
Visibility 10.0 miles
Clouds Overcast 3400 ft
Windchill 25 °F
Dew Point 20 °F
Humidity 80%
Rainfall -999.00 in
Snow Depth Not available.
UV 0 out of 12
Pollen .10 out of 12
Air Quality Not available.
Flu Activity Not available.
METAR KBLF 280752Z AUTO 29008KT 10SM OVC034 M04/M09 A3022 RMK AO2 SNE16 SLP259 P0000 T10441089 $

More Conditions Fewer Conditions

10-Day Weather Forecast

Almanac

Astronomy

Nov. 28, 2014 Rise Set
Actual Time
Civil Twilight
Nautical Twilight
Astronomical Twilight
Moon
Length of Visible Light
Length of Day
Tomorrow will be .
, % of the Moon is Illuminated

Today's Extremes

State Highs State Lows

Community

WunderPhotos

Upload Photos

1,774,191 photos uploaded!

WunderBlogs® & News

Nearby

Air Quality

  Air Quality AQ Index Pollutant
Not available.

Snow Depth

Station Depth Elevation

Earthquake Activity

City Distance Mag. Time & Date
Minimum magnitude displayed is 2.5.

Coastal Water Temperatures

Place Temperature

Nearby Weather Stations